Stone Mountain, GA (30088)

11:16 AM EST on November 23, 2014 (GMT -0500)
Oak Creek | Change Station
CLOSE
Current Station
Personal Weather Station
Location: Avondale Estates, GA
Elevation: 975 ft
Nearby Weather Stations

Elev 975 ft 33.78 °N, 84.25 °W | Updated 1 minute ago

Overcast
Overcast
49.4 °F
Feels Like 49 °F
N
2.0
Wind Variable Wind from East
Gusts 8.0 mph

Today
High -- | Low -- °F
--% Chance of Precip.
Yesterday
High -- | Low -- °F
Precip. -- in
7:16 AM 5:29 PM
New Moon, 2% visible
Pressure 30.00 in
Visibility 1.5 miles
Clouds Overcast 500 ft
Windchill 49 °F
Dew Point 48 °F
Humidity 96%
Rainfall 0.58 in
Snow Depth Not available.
UV 1 out of 12
Pollen .30 out of 12
Air Quality Not available.
Flu Activity Not available.
METAR KPDK 231553Z VRB05KT 1 1/2SM -RA BR OVC005 09/08 A2999 RMK AO2 SFC VIS 2 SLP159 P0011 T00940078

More Conditions Fewer Conditions

Pressure 30.00 in
Visibility 1.5 miles
Clouds Overcast 500 ft
Windchill 49 °F
Dew Point 48 °F
Humidity 96%
Rainfall 0.58 in
Snow Depth Not available.
UV 1 out of 12
Pollen .30 out of 12
Air Quality Not available.
Flu Activity Not available.
METAR KPDK 231553Z VRB05KT 1 1/2SM -RA BR OVC005 09/08 A2999 RMK AO2 SFC VIS 2 SLP159 P0011 T00940078

More Conditions Fewer Conditions

10-Day Weather Forecast

Almanac

Astronomy

Nov. 23, 2014 Rise Set
Actual Time
Civil Twilight
Nautical Twilight
Astronomical Twilight
Moon
Length of Visible Light
Length of Day
Tomorrow will be .
, % of the Moon is Illuminated

Today's Extremes

State Highs State Lows

Community

WunderPhotos

Upload Photos

1,773,089 photos uploaded!

WunderBlogs® & News

Nearby

Air Quality

  Air Quality AQ Index Pollutant
Not available.

Snow Depth

Station Depth Elevation

Earthquake Activity

City Distance Mag. Time & Date
Minimum magnitude displayed is 2.5.

Coastal Water Temperatures

Place Temperature

Nearby Weather Stations